sensor_id;sensor_type;location;lat;lon;timestamp;pressure;altitude;pressure_sealevel;temperature;humidity
56632;BME280;42503;39.928;-75.152;2023-02-15T00:01:36;102064.47;;;21.27;34.69
56632;BME280;42503;39.928;-75.152;2023-02-15T00:11:38;102076.44;;;21.28;35.00
56632;BME280;42503;39.928;-75.152;2023-02-15T00:21:51;102081.69;;;21.24;34.75
56632;BME280;42503;39.928;-75.152;2023-02-15T00:31:52;102109.19;;;21.38;34.85
56632;BME280;42503;39.928;-75.152;2023-02-15T00:41:54;102104.22;;;21.40;34.67
56632;BME280;42503;39.928;-75.152;2023-02-15T00:51:55;102101.53;;;21.45;34.54
56632;BME280;42503;39.928;-75.152;2023-02-15T01:01:59;102100.41;;;21.46;34.96
56632;BME280;42503;39.928;-75.152;2023-02-15T01:12:01;102118.81;;;21.47;34.79
56632;BME280;42503;39.928;-75.152;2023-02-15T01:22:02;102120.75;;;21.46;35.12
56632;BME280;42503;39.928;-75.152;2023-02-15T01:32:04;102116.09;;;21.52;35.33
56632;BME280;42503;39.928;-75.152;2023-02-15T01:42:05;102105.06;;;21.62;35.79
56632;BME280;42503;39.928;-75.152;2023-02-15T01:52:14;102113.53;;;21.67;35.96
56632;BME280;42503;39.928;-75.152;2023-02-15T02:02:18;102111.66;;;21.73;35.98
56632;BME280;42503;39.928;-75.152;2023-02-15T02:12:22;102103.03;;;21.74;36.01
56632;BME280;42503;39.928;-75.152;2023-02-15T02:44:44;102134.28;;;21.76;36.66
56632;BME280;42503;39.928;-75.152;2023-02-15T02:54:48;102126.56;;;21.83;36.62
56632;BME280;42503;39.928;-75.152;2023-02-15T03:04:53;102124.03;;;21.82;37.00
56632;BME280;42503;39.928;-75.152;2023-02-15T03:25:13;102125.44;;;21.85;36.67
56632;BME280;42503;39.928;-75.152;2023-02-15T03:35:18;102121.03;;;21.89;36.91
56632;BME280;42503;39.928;-75.152;2023-02-15T03:45:25;102112.88;;;21.82;36.71
56632;BME280;42503;39.928;-75.152;2023-02-15T03:55:29;102117.81;;;21.97;36.92
56632;BME280;42503;39.928;-75.152;2023-02-15T04:05:30;102092.66;;;21.92;36.58
56632;BME280;42503;39.928;-75.152;2023-02-15T04:15:31;102108.00;;;21.94;36.58
56632;BME280;42503;39.928;-75.152;2023-02-15T04:25:51;102114.13;;;21.91;36.90
56632;BME280;42503;39.928;-75.152;2023-02-15T04:35:55;102083.69;;;21.90;37.04
56632;BME280;42503;39.928;-75.152;2023-02-15T04:46:00;102052.41;;;21.82;36.98
56632;BME280;42503;39.928;-75.152;2023-02-15T04:56:01;102019.00;;;22.10;36.58
56632;BME280;42503;39.928;-75.152;2023-02-15T05:06:07;101986.16;;;21.90;36.25
56632;BME280;42503;39.928;-75.152;2023-02-15T05:16:08;102016.34;;;22.20;35.66
56632;BME280;42503;39.928;-75.152;2023-02-15T05:26:17;102040.09;;;22.22;35.75
56632;BME280;42503;39.928;-75.152;2023-02-15T05:36:37;102069.63;;;22.23;35.36
56632;BME280;42503;39.928;-75.152;2023-02-15T05:46:38;102064.06;;;22.23;35.27
56632;BME280;42503;39.928;-75.152;2023-02-15T05:56:39;102042.88;;;22.22;34.92
56632;BME280;42503;39.928;-75.152;2023-02-15T06:06:41;102045.06;;;22.20;34.37
56632;BME280;42503;39.928;-75.152;2023-02-15T06:16:42;102049.81;;;22.20;34.10
56632;BME280;42503;39.928;-75.152;2023-02-15T06:26:43;102043.38;;;22.19;34.04
56632;BME280;42503;39.928;-75.152;2023-02-15T06:36:45;102041.72;;;22.18;34.29
56632;BME280;42503;39.928;-75.152;2023-02-15T06:46:46;102032.75;;;22.16;33.61
56632;BME280;42503;39.928;-75.152;2023-02-15T06:56:50;102072.06;;;22.15;34.01
56632;BME280;42503;39.928;-75.152;2023-02-15T07:06:52;102071.78;;;22.16;33.83
56632;BME280;42503;39.928;-75.152;2023-02-15T07:16:53;102041.66;;;22.13;33.50
56632;BME280;42503;39.928;-75.152;2023-02-15T07:26:54;102054.97;;;22.11;33.47
56632;BME280;42503;39.928;-75.152;2023-02-15T07:36:56;102063.00;;;22.07;33.18
56632;BME280;42503;39.928;-75.152;2023-02-15T07:47:00;102052.19;;;22.11;34.12
56632;BME280;42503;39.928;-75.152;2023-02-15T07:57:02;102038.00;;;22.13;34.07
56632;BME280;42503;39.928;-75.152;2023-02-15T08:07:03;102032.31;;;22.29;33.48
56632;BME280;42503;39.928;-75.152;2023-02-15T08:17:05;102018.72;;;22.33;33.43
56632;BME280;42503;39.928;-75.152;2023-02-15T08:27:08;102011.50;;;22.37;33.12
56632;BME280;42503;39.928;-75.152;2023-02-15T08:37:10;101983.94;;;22.41;33.46
56632;BME280;42503;39.928;-75.152;2023-02-15T08:47:14;101969.47;;;22.49;33.10
56632;BME280;42503;39.928;-75.152;2023-02-15T08:57:18;101963.38;;;22.52;33.51
56632;BME280;42503;39.928;-75.152;2023-02-15T09:07:22;101999.09;;;22.55;33.44
56632;BME280;42503;39.928;-75.152;2023-02-15T09:17:24;101993.53;;;22.55;33.19
56632;BME280;42503;39.928;-75.152;2023-02-15T09:27:29;102016.91;;;22.54;33.56
56632;BME280;42503;39.928;-75.152;2023-02-15T09:37:30;101972.28;;;22.54;33.47
56632;BME280;42503;39.928;-75.152;2023-02-15T10:29:12;101969.78;;;22.52;33.63
56632;BME280;42503;39.928;-75.152;2023-02-15T10:39:39;101997.66;;;22.52;33.30
56632;BME280;42503;39.928;-75.152;2023-02-15T11:00:13;102028.09;;;22.54;33.25
56632;BME280;42503;39.928;-75.152;2023-02-15T11:10:32;102009.09;;;22.51;33.11
56632;BME280;42503;39.928;-75.152;2023-02-15T11:31:16;101961.38;;;22.47;32.69
56632;BME280;42503;39.928;-75.152;2023-02-15T11:41:24;101957.44;;;22.43;32.45
56632;BME280;42503;39.928;-75.152;2023-02-15T11:51:28;101930.97;;;22.46;32.29
56632;BME280;42503;39.928;-75.152;2023-02-15T12:11:36;101868.69;;;22.35;35.65
56632;BME280;42503;39.928;-75.152;2023-02-15T12:21:43;101852.94;;;22.14;35.73
56632;BME280;42503;39.928;-75.152;2023-02-15T12:31:48;101898.63;;;22.13;34.95
56632;BME280;42503;39.928;-75.152;2023-02-15T12:52:03;101839.19;;;22.07;38.20
56632;BME280;42503;39.928;-75.152;2023-02-15T13:02:35;101864.22;;;22.02;37.16
56632;BME280;42503;39.928;-75.152;2023-02-15T13:12:37;101881.25;;;22.05;37.05
56632;BME280;42503;39.928;-75.152;2023-02-15T13:22:43;101883.41;;;21.98;37.20
56632;BME280;42503;39.928;-75.152;2023-02-15T13:32:52;101854.13;;;21.91;36.93
56632;BME280;42503;39.928;-75.152;2023-02-15T14:14:18;101801.31;;;21.74;37.11
56632;BME280;42503;39.928;-75.152;2023-02-15T14:34:46;101769.72;;;21.95;43.08
56632;BME280;42503;39.928;-75.152;2023-02-15T14:55:09;101741.00;;;21.95;42.08
56632;BME280;42503;39.928;-75.152;2023-02-15T15:05:21;101730.66;;;21.90;41.41
56632;BME280;42503;39.928;-75.152;2023-02-15T15:25:48;101695.81;;;21.88;40.37
56632;BME280;42503;39.928;-75.152;2023-02-15T15:57:32;101632.78;;;21.76;39.36
56632;BME280;42503;39.928;-75.152;2023-02-15T16:07:35;101611.63;;;21.80;39.15
56632;BME280;42503;39.928;-75.152;2023-02-15T16:17:36;101584.31;;;21.77;38.73
56632;BME280;42503;39.928;-75.152;2023-02-15T16:27:39;101562.22;;;21.61;38.83
56632;BME280;42503;39.928;-75.152;2023-02-15T16:37:43;101558.41;;;21.77;38.34
56632;BME280;42503;39.928;-75.152;2023-02-15T16:47:47;101506.56;;;21.76;38.72
56632;BME280;42503;39.928;-75.152;2023-02-15T16:57:53;101467.84;;;21.74;38.68
56632;BME280;42503;39.928;-75.152;2023-02-15T17:08:11;101415.22;;;21.73;38.36
56632;BME280;42503;39.928;-75.152;2023-02-15T17:18:25;101373.16;;;21.74;38.24
56632;BME280;42503;39.928;-75.152;2023-02-15T17:28:30;101344.16;;;21.60;37.56
56632;BME280;42503;39.928;-75.152;2023-02-15T17:38:32;101330.81;;;21.77;37.62
56632;BME280;42503;39.928;-75.152;2023-02-15T17:48:35;101311.84;;;21.74;37.49
56632;BME280;42503;39.928;-75.152;2023-02-15T17:58:38;101283.72;;;21.71;37.74
56632;BME280;42503;39.928;-75.152;2023-02-15T18:08:40;101266.16;;;21.80;37.51
56632;BME280;42503;39.928;-75.152;2023-02-15T18:19:00;101251.97;;;21.82;37.33
56632;BME280;42503;39.928;-75.152;2023-02-15T18:29:02;101221.03;;;21.83;37.09
56632;BME280;42503;39.928;-75.152;2023-02-15T18:49:28;101188.44;;;21.84;36.75
56632;BME280;42503;39.928;-75.152;2023-02-15T18:59:29;101175.91;;;21.87;37.00
56632;BME280;42503;39.928;-75.152;2023-02-15T19:09:32;101160.31;;;21.86;36.99
56632;BME280;42503;39.928;-75.152;2023-02-15T19:19:36;101118.25;;;21.82;36.72
56632;BME280;42503;39.928;-75.152;2023-02-15T19:29:37;101111.84;;;21.81;36.49
56632;BME280;42503;39.928;-75.152;2023-02-15T19:39:39;101108.50;;;21.79;36.48
56632;BME280;42503;39.928;-75.152;2023-02-15T19:49:42;101118.53;;;21.86;36.69
56632;BME280;42503;39.928;-75.152;2023-02-15T19:59:43;101102.66;;;21.86;36.62
56632;BME280;42503;39.928;-75.152;2023-02-15T20:09:45;101132.19;;;21.87;36.59
56632;BME280;42503;39.928;-75.152;2023-02-15T20:19:47;101128.00;;;21.85;36.63
56632;BME280;42503;39.928;-75.152;2023-02-15T20:29:49;101126.31;;;21.83;36.54
56632;BME280;42503;39.928;-75.152;2023-02-15T20:39:50;101143.06;;;21.78;36.46
56632;BME280;42503;39.928;-75.152;2023-02-15T20:49:52;101119.38;;;21.71;36.76
56632;BME280;42503;39.928;-75.152;2023-02-15T20:59:54;101150.88;;;21.81;36.72
56632;BME280;42503;39.928;-75.152;2023-02-15T21:09:55;101144.72;;;21.79;36.76
56632;BME280;42503;39.928;-75.152;2023-02-15T21:19:56;101154.19;;;21.78;36.93
56632;BME280;42503;39.928;-75.152;2023-02-15T21:29:58;101162.56;;;21.78;36.96
56632;BME280;42503;39.928;-75.152;2023-02-15T21:40:01;101167.31;;;21.68;36.53
56632;BME280;42503;39.928;-75.152;2023-02-15T21:50:07;101165.34;;;21.73;36.74
56632;BME280;42503;39.928;-75.152;2023-02-15T22:00:29;101191.25;;;21.79;36.72
56632;BME280;42503;39.928;-75.152;2023-02-15T22:10:31;101207.13;;;21.78;36.78
56632;BME280;42503;39.928;-75.152;2023-02-15T22:20:33;101208.50;;;21.76;36.87
56632;BME280;42503;39.928;-75.152;2023-02-15T22:30:35;101213.25;;;21.75;36.81
56632;BME280;42503;39.928;-75.152;2023-02-15T22:40:39;101236.13;;;21.72;36.78
56632;BME280;42503;39.928;-75.152;2023-02-15T22:50:41;101241.69;;;21.77;36.92
56632;BME280;42503;39.928;-75.152;2023-02-15T23:00:43;101215.50;;;21.58;36.52
56632;BME280;42503;39.928;-75.152;2023-02-15T23:10:49;101233.88;;;21.69;36.68
56632;BME280;42503;39.928;-75.152;2023-02-15T23:21:00;101243.34;;;21.78;36.42
56632;BME280;42503;39.928;-75.152;2023-02-15T23:31:13;101258.09;;;21.74;36.75
56632;BME280;42503;39.928;-75.152;2023-02-15T23:41:19;101140.84;;;21.09;36.70
56632;BME280;42503;39.928;-75.152;2023-02-15T23:51:29;101253.38;;;21.74;36.86
